Pleasant Valley, VA (22848)

11:37 PM EDT on September 26, 2016 (GMT -0400)
Massanutten Technical Center | | Change Station

Elev 1234 ft 38.40 °N, 78.90 °W | Updated 25 seconds ago

Overcast
Overcast
65.3 °F
Feels Like 65.3 °F
N
2.7
Wind Variable Wind from SSE
Gusts 4.9 mph

Today
High -- | Low -- °F
--% Chance of Precip.
Yesterday
High -- | Low -- °F
Precip. -- in
Pressure 30.02 in
Visibility 7.0 miles
Clouds Overcast 1300 ft
Dew Point 65 °F
Humidity 99%
Rainfall in
Snow Depth Not available.
7:07 AM 7:05 PM
Waning Crescent, 14% visible
METAR KSHD 270315Z AUTO 00000KT 7SM OVC013 17/17 A3002 RMK AO2 T01720166
Pressure 30.02 in
Visibility 7.0 miles
Clouds Overcast 1300 ft
Dew Point 65 °F
Humidity 99%
Rainfall in
Snow Depth Not available.
7:07 AM 7:05 PM
Waning Crescent, 14% visible
METAR KSHD 270315Z AUTO 00000KT 7SM OVC013 17/17 A3002 RMK AO2 T01720166

10-Day Weather Forecast

Almanac

Astronomy

Sep. 26, 2016 Rise Set
Actual Time
Civil Twilight
Nautical Twilight
Astronomical Twilight
Moon
Length of Visible Light
Length of Day
Tomorrow will be .
, % of the Moon is Illuminated

Today's Extremes

State Highs State Lows

Community

WunderPhotos

Upload Photos

1,942,028 photos uploaded!

WunderBlog® & News

Nearby

Air Quality

  Air Quality AQ Index Pollutant
Not available.

Snow Depth

Station Depth Elevation

Earthquake Activity

City Distance Mag. Time & Date
Minimum magnitude displayed is 2.5.

Coastal Water Temperatures

Place Temperature

Stations

Nearby Weather Stations

Station Location Temp. Windchill Dew Point Humidity Wind Precip. Elev Updated Type
                   

Watches & Warnings

There are currently no watches in effect.